sensor_id;sensor_type;location;lat;lon;timestamp;temperature;humidity
38209;DHT22;24016;52.102;11.584;2023-12-04T00:00:05;-4.90;99.90
38209;DHT22;24016;52.102;11.584;2023-12-04T00:02:32;-4.90;99.90
38209;DHT22;24016;52.102;11.584;2023-12-04T00:04:57;-4.90;99.90
38209;DHT22;24016;52.102;11.584;2023-12-04T00:07:23;-4.90;99.90
38209;DHT22;24016;52.102;11.584;2023-12-04T00:09:49;-4.90;99.90
38209;DHT22;24016;52.102;11.584;2023-12-04T00:12:14;-4.80;99.90
38209;DHT22;24016;52.102;11.584;2023-12-04T00:14:40;-4.80;99.90
38209;DHT22;24016;52.102;11.584;2023-12-04T00:17:05;-4.80;99.90
38209;DHT22;24016;52.102;11.584;2023-12-04T00:19:31;-4.70;99.90
38209;DHT22;24016;52.102;11.584;2023-12-04T00:21:56;-4.70;99.90
38209;DHT22;24016;52.102;11.584;2023-12-04T00:24:22;-4.70;99.90
38209;DHT22;24016;52.102;11.584;2023-12-04T00:26:47;-4.60;99.90
38209;DHT22;24016;52.102;11.584;2023-12-04T00:29:13;-4.60;99.90
38209;DHT22;24016;52.102;11.584;2023-12-04T00:31:38;-4.60;99.90
38209;DHT22;24016;52.102;11.584;2023-12-04T00:34:04;-4.60;99.90
38209;DHT22;24016;52.102;11.584;2023-12-04T00:36:29;-4.50;99.90
38209;DHT22;24016;52.102;11.584;2023-12-04T00:38:55;-4.50;99.90
38209;DHT22;24016;52.102;11.584;2023-12-04T00:41:20;-4.50;99.90
38209;DHT22;24016;52.102;11.584;2023-12-04T00:43:46;-4.40;99.90
38209;DHT22;24016;52.102;11.584;2023-12-04T00:46:11;-4.50;99.90
38209;DHT22;24016;52.102;11.584;2023-12-04T00:48:37;-4.40;99.90
38209;DHT22;24016;52.102;11.584;2023-12-04T00:51:02;-4.40;99.90
38209;DHT22;24016;52.102;11.584;2023-12-04T00:53:28;-4.40;99.90
38209;DHT22;24016;52.102;11.584;2023-12-04T00:55:54;-4.40;99.90
38209;DHT22;24016;52.102;11.584;2023-12-04T00:58:19;-4.40;99.90
38209;DHT22;24016;52.102;11.584;2023-12-04T01:00:45;-4.40;99.90
38209;DHT22;24016;52.102;11.584;2023-12-04T01:03:10;-4.40;99.90
38209;DHT22;24016;52.102;11.584;2023-12-04T01:05:36;-4.40;99.90
38209;DHT22;24016;52.102;11.584;2023-12-04T01:08:01;-4.40;99.90
38209;DHT22;24016;52.102;11.584;2023-12-04T01:10:27;-4.40;99.90
38209;DHT22;24016;52.102;11.584;2023-12-04T01:12:52;-4.40;99.90
38209;DHT22;24016;52.102;11.584;2023-12-04T01:15:18;-4.40;99.90
38209;DHT22;24016;52.102;11.584;2023-12-04T01:17:44;-4.40;99.90
38209;DHT22;24016;52.102;11.584;2023-12-04T01:20:09;-4.40;99.90
38209;DHT22;24016;52.102;11.584;2023-12-04T01:22:35;-4.50;99.90
38209;DHT22;24016;52.102;11.584;2023-12-04T01:25:01;-4.50;99.90
38209;DHT22;24016;52.102;11.584;2023-12-04T01:27:28;-4.50;99.90
38209;DHT22;24016;52.102;11.584;2023-12-04T01:29:53;-4.50;99.90
38209;DHT22;24016;52.102;11.584;2023-12-04T01:32:19;-4.60;99.90
38209;DHT22;24016;52.102;11.584;2023-12-04T01:34:44;-4.50;99.90
38209;DHT22;24016;52.102;11.584;2023-12-04T01:37:10;-4.50;99.90
38209;DHT22;24016;52.102;11.584;2023-12-04T01:39:37;-4.50;99.90
38209;DHT22;24016;52.102;11.584;2023-12-04T01:42:02;-4.50;99.90
38209;DHT22;24016;52.102;11.584;2023-12-04T01:44:28;-4.50;99.90
38209;DHT22;24016;52.102;11.584;2023-12-04T01:46:54;-4.50;99.90
38209;DHT22;24016;52.102;11.584;2023-12-04T01:49:19;-4.60;99.90
38209;DHT22;24016;52.102;11.584;2023-12-04T01:51:45;-4.60;99.90
38209;DHT22;24016;52.102;11.584;2023-12-04T01:54:11;-4.60;99.90
38209;DHT22;24016;52.102;11.584;2023-12-04T01:56:37;-4.60;99.90
38209;DHT22;24016;52.102;11.584;2023-12-04T01:59:03;-4.60;99.90
38209;DHT22;24016;52.102;11.584;2023-12-04T02:01:29;-4.60;99.90
38209;DHT22;24016;52.102;11.584;2023-12-04T02:03:56;-4.60;99.90
38209;DHT22;24016;52.102;11.584;2023-12-04T02:06:22;-4.60;99.90
38209;DHT22;24016;52.102;11.584;2023-12-04T02:08:48;-4.60;99.90
38209;DHT22;24016;52.102;11.584;2023-12-04T02:11:14;-4.50;99.90
38209;DHT22;24016;52.102;11.584;2023-12-04T02:13:40;-4.50;99.90
38209;DHT22;24016;52.102;11.584;2023-12-04T02:16:09;-4.50;99.90
38209;DHT22;24016;52.102;11.584;2023-12-04T02:18:35;-4.50;99.90
38209;DHT22;24016;52.102;11.584;2023-12-04T02:21:01;-4.40;99.90
38209;DHT22;24016;52.102;11.584;2023-12-04T02:23:27;-4.40;99.90
38209;DHT22;24016;52.102;11.584;2023-12-04T02:25:57;-4.50;99.90
38209;DHT22;24016;52.102;11.584;2023-12-04T02:28:25;-4.40;99.90
38209;DHT22;24016;52.102;11.584;2023-12-04T02:33:26;-4.50;99.90
38209;DHT22;24016;52.102;11.584;2023-12-04T02:35:59;-4.40;99.90
38209;DHT22;24016;52.102;11.584;2023-12-04T02:38:27;-4.50;99.90
38209;DHT22;24016;52.102;11.584;2023-12-04T02:40:56;-4.40;99.90
38209;DHT22;24016;52.102;11.584;2023-12-04T02:43:21;-4.40;99.90
38209;DHT22;24016;52.102;11.584;2023-12-04T02:45:47;-4.40;99.90
38209;DHT22;24016;52.102;11.584;2023-12-04T02:48:12;-4.40;99.90
38209;DHT22;24016;52.102;11.584;2023-12-04T02:50:38;-4.40;99.90
38209;DHT22;24016;52.102;11.584;2023-12-04T02:53:03;-4.30;99.90
38209;DHT22;24016;52.102;11.584;2023-12-04T02:55:29;-4.40;99.90
38209;DHT22;24016;52.102;11.584;2023-12-04T02:57:54;-4.30;99.90
38209;DHT22;24016;52.102;11.584;2023-12-04T03:00:20;-4.40;99.90
38209;DHT22;24016;52.102;11.584;2023-12-04T03:02:45;-4.40;99.90
38209;DHT22;24016;52.102;11.584;2023-12-04T03:05:11;-4.30;99.90
38209;DHT22;24016;52.102;11.584;2023-12-04T03:07:36;-4.30;99.90
38209;DHT22;24016;52.102;11.584;2023-12-04T03:10:03;-4.40;99.90
38209;DHT22;24016;52.102;11.584;2023-12-04T03:12:29;-4.40;99.90
38209;DHT22;24016;52.102;11.584;2023-12-04T03:14:54;-4.50;99.90
38209;DHT22;24016;52.102;11.584;2023-12-04T03:17:20;-4.40;99.90
38209;DHT22;24016;52.102;11.584;2023-12-04T03:19:45;-4.40;99.90
38209;DHT22;24016;52.102;11.584;2023-12-04T03:22:12;-4.40;99.90
38209;DHT22;24016;52.102;11.584;2023-12-04T03:24:37;-4.40;99.90
38209;DHT22;24016;52.102;11.584;2023-12-04T03:27:03;-4.50;99.90
38209;DHT22;24016;52.102;11.584;2023-12-04T03:29:29;-4.50;99.90
38209;DHT22;24016;52.102;11.584;2023-12-04T03:31:54;-4.50;99.90
38209;DHT22;24016;52.102;11.584;2023-12-04T03:34:19;-4.60;99.90
38209;DHT22;24016;52.102;11.584;2023-12-04T03:36:45;-4.50;99.90
38209;DHT22;24016;52.102;11.584;2023-12-04T03:39:11;-4.60;99.90
38209;DHT22;24016;52.102;11.584;2023-12-04T03:41:36;-4.50;99.90
38209;DHT22;24016;52.102;11.584;2023-12-04T03:44:03;-4.50;99.90
38209;DHT22;24016;52.102;11.584;2023-12-04T03:46:28;-4.60;99.90
38209;DHT22;24016;52.102;11.584;2023-12-04T03:48:54;-4.60;99.90
38209;DHT22;24016;52.102;11.584;2023-12-04T03:51:20;-4.60;99.90
38209;DHT22;24016;52.102;11.584;2023-12-04T03:53:46;-4.60;99.90
38209;DHT22;24016;52.102;11.584;2023-12-04T03:56:11;-4.50;99.90
38209;DHT22;24016;52.102;11.584;2023-12-04T03:58:37;-4.50;99.90
38209;DHT22;24016;52.102;11.584;2023-12-04T04:01:04;-4.50;99.90
38209;DHT22;24016;52.102;11.584;2023-12-04T04:03:29;-4.50;99.90
38209;DHT22;24016;52.102;11.584;2023-12-04T04:05:55;-4.50;99.90
38209;DHT22;24016;52.102;11.584;2023-12-04T04:08:20;-4.50;99.90
38209;DHT22;24016;52.102;11.584;2023-12-04T04:10:46;-4.50;99.90
38209;DHT22;24016;52.102;11.584;2023-12-04T04:13:12;-4.40;99.90
38209;DHT22;24016;52.102;11.584;2023-12-04T04:15:37;-4.50;99.90
38209;DHT22;24016;52.102;11.584;2023-12-04T04:18:03;-4.40;99.90
38209;DHT22;24016;52.102;11.584;2023-12-04T04:20:28;-4.40;99.90
38209;DHT22;24016;52.102;11.584;2023-12-04T04:22:54;-4.40;99.90
38209;DHT22;24016;52.102;11.584;2023-12-04T04:25:19;-4.40;99.90
38209;DHT22;24016;52.102;11.584;2023-12-04T04:27:47;-4.30;99.90
38209;DHT22;24016;52.102;11.584;2023-12-04T04:30:12;-4.30;99.90
38209;DHT22;24016;52.102;11.584;2023-12-04T04:32:39;-4.30;99.90
38209;DHT22;24016;52.102;11.584;2023-12-04T04:35:04;-4.30;99.90
38209;DHT22;24016;52.102;11.584;2023-12-04T04:37:30;-4.30;99.90
38209;DHT22;24016;52.102;11.584;2023-12-04T04:39:55;-4.20;99.90
38209;DHT22;24016;52.102;11.584;2023-12-04T04:42:22;-4.20;99.90
38209;DHT22;24016;52.102;11.584;2023-12-04T04:44:48;-4.20;99.90
38209;DHT22;24016;52.102;11.584;2023-12-04T04:47:13;-4.20;99.90
38209;DHT22;24016;52.102;11.584;2023-12-04T04:49:39;-4.20;99.90
38209;DHT22;24016;52.102;11.584;2023-12-04T04:52:04;-4.20;99.90
38209;DHT22;24016;52.102;11.584;2023-12-04T04:54:33;-4.10;99.90
38209;DHT22;24016;52.102;11.584;2023-12-04T04:56:59;-4.10;99.90
38209;DHT22;24016;52.102;11.584;2023-12-04T04:59:24;-4.10;99.90
38209;DHT22;24016;52.102;11.584;2023-12-04T05:01:50;-4.20;99.90
38209;DHT22;24016;52.102;11.584;2023-12-04T05:04:15;-4.10;99.90
38209;DHT22;24016;52.102;11.584;2023-12-04T05:06:41;-4.10;99.90
38209;DHT22;24016;52.102;11.584;2023-12-04T05:09:06;-4.10;99.90
38209;DHT22;24016;52.102;11.584;2023-12-04T05:11:32;-4.10;99.90
38209;DHT22;24016;52.102;11.584;2023-12-04T05:13:57;-4.10;99.90
38209;DHT22;24016;52.102;11.584;2023-12-04T05:16:23;-4.10;99.90
38209;DHT22;24016;52.102;11.584;2023-12-04T05:18:48;-4.00;99.90
38209;DHT22;24016;52.102;11.584;2023-12-04T05:21:14;-4.00;99.90
38209;DHT22;24016;52.102;11.584;2023-12-04T05:23:40;-4.00;99.90
38209;DHT22;24016;52.102;11.584;2023-12-04T05:26:07;-4.00;99.90
38209;DHT22;24016;52.102;11.584;2023-12-04T05:28:33;-4.00;99.90
38209;DHT22;24016;52.102;11.584;2023-12-04T05:30:59;-4.00;99.90
38209;DHT22;24016;52.102;11.584;2023-12-04T05:33:25;-4.00;99.90
38209;DHT22;24016;52.102;11.584;2023-12-04T05:35:51;-4.00;99.90
38209;DHT22;24016;52.102;11.584;2023-12-04T05:38:17;-4.00;99.90
38209;DHT22;24016;52.102;11.584;2023-12-04T05:40:43;-4.00;99.90
38209;DHT22;24016;52.102;11.584;2023-12-04T05:43:08;-4.00;99.90
38209;DHT22;24016;52.102;11.584;2023-12-04T05:45:34;-3.90;99.90
38209;DHT22;24016;52.102;11.584;2023-12-04T05:47:59;-4.00;99.90
38209;DHT22;24016;52.102;11.584;2023-12-04T05:50:25;-3.90;99.90
38209;DHT22;24016;52.102;11.584;2023-12-04T05:52:53;-3.90;99.90
38209;DHT22;24016;52.102;11.584;2023-12-04T05:55:19;-3.90;99.90
38209;DHT22;24016;52.102;11.584;2023-12-04T05:57:46;-3.90;99.90
38209;DHT22;24016;52.102;11.584;2023-12-04T06:00:12;-3.80;99.90
38209;DHT22;24016;52.102;11.584;2023-12-04T06:02:42;-3.80;99.90
38209;DHT22;24016;52.102;11.584;2023-12-04T06:05:08;-3.80;99.90
38209;DHT22;24016;52.102;11.584;2023-12-04T06:07:35;-3.80;99.90
38209;DHT22;24016;52.102;11.584;2023-12-04T06:10:01;-3.80;99.90
38209;DHT22;24016;52.102;11.584;2023-12-04T06:12:27;-3.80;99.90
38209;DHT22;24016;52.102;11.584;2023-12-04T06:14:52;-3.70;99.90
38209;DHT22;24016;52.102;11.584;2023-12-04T06:17:18;-3.80;99.90
38209;DHT22;24016;52.102;11.584;2023-12-04T06:19:45;-3.70;99.90
38209;DHT22;24016;52.102;11.584;2023-12-04T06:22:13;-3.70;99.90
38209;DHT22;24016;52.102;11.584;2023-12-04T06:24:38;-3.70;99.90
38209;DHT22;24016;52.102;11.584;2023-12-04T06:27:04;-3.70;99.90
38209;DHT22;24016;52.102;11.584;2023-12-04T06:29:31;-3.70;99.90
38209;DHT22;24016;52.102;11.584;2023-12-04T06:31:58;-3.70;99.90
38209;DHT22;24016;52.102;11.584;2023-12-04T06:34:24;-3.70;99.90
38209;DHT22;24016;52.102;11.584;2023-12-04T06:36:49;-3.70;99.90
38209;DHT22;24016;52.102;11.584;2023-12-04T06:39:16;-3.70;99.90
38209;DHT22;24016;52.102;11.584;2023-12-04T06:41:43;-3.70;99.90
38209;DHT22;24016;52.102;11.584;2023-12-04T06:44:09;-3.70;99.90
38209;DHT22;24016;52.102;11.584;2023-12-04T06:46:39;-3.70;99.90
38209;DHT22;24016;52.102;11.584;2023-12-04T06:49:06;-3.70;99.90
38209;DHT22;24016;52.102;11.584;2023-12-04T06:51:34;-3.60;99.90
38209;DHT22;24016;52.102;11.584;2023-12-04T06:54:00;-3.60;99.90
38209;DHT22;24016;52.102;11.584;2023-12-04T06:56:25;-3.60;99.90
38209;DHT22;24016;52.102;11.584;2023-12-04T06:58:51;-3.60;99.90
38209;DHT22;24016;52.102;11.584;2023-12-04T07:01:16;-3.60;99.90
38209;DHT22;24016;52.102;11.584;2023-12-04T07:03:42;-3.60;99.90
38209;DHT22;24016;52.102;11.584;2023-12-04T07:06:07;-3.60;99.90
38209;DHT22;24016;52.102;11.584;2023-12-04T07:08:33;-3.60;99.90
38209;DHT22;24016;52.102;11.584;2023-12-04T07:10:59;-3.50;99.90
38209;DHT22;24016;52.102;11.584;2023-12-04T07:13:24;-3.60;99.90
38209;DHT22;24016;52.102;11.584;2023-12-04T07:15:50;-3.50;99.90
38209;DHT22;24016;52.102;11.584;2023-12-04T07:18:15;-3.50;99.90
38209;DHT22;24016;52.102;11.584;2023-12-04T07:20:41;-3.50;99.90
38209;DHT22;24016;52.102;11.584;2023-12-04T07:23:06;-3.40;99.90
38209;DHT22;24016;52.102;11.584;2023-12-04T07:25:31;-3.30;99.90
38209;DHT22;24016;52.102;11.584;2023-12-04T07:27:57;-3.40;99.90
38209;DHT22;24016;52.102;11.584;2023-12-04T07:30:25;-3.40;99.90
38209;DHT22;24016;52.102;11.584;2023-12-04T07:32:51;-3.40;99.90
38209;DHT22;24016;52.102;11.584;2023-12-04T07:35:19;-3.30;99.90
38209;DHT22;24016;52.102;11.584;2023-12-04T07:37:44;-3.30;99.90
38209;DHT22;24016;52.102;11.584;2023-12-04T07:40:10;-3.30;99.90
38209;DHT22;24016;52.102;11.584;2023-12-04T07:42:36;-3.30;99.90
38209;DHT22;24016;52.102;11.584;2023-12-04T07:45:02;-3.20;99.90
38209;DHT22;24016;52.102;11.584;2023-12-04T07:47:29;-3.20;99.90
38209;DHT22;24016;52.102;11.584;2023-12-04T07:49:55;-3.20;99.90
38209;DHT22;24016;52.102;11.584;2023-12-04T07:52:20;-3.20;99.90
38209;DHT22;24016;52.102;11.584;2023-12-04T07:54:46;-3.10;99.90
38209;DHT22;24016;52.102;11.584;2023-12-04T07:57:11;-3.10;99.90
38209;DHT22;24016;52.102;11.584;2023-12-04T07:59:37;-3.10;99.90
38209;DHT22;24016;52.102;11.584;2023-12-04T08:02:03;-3.00;99.90
38209;DHT22;24016;52.102;11.584;2023-12-04T08:04:29;-3.00;99.90
38209;DHT22;24016;52.102;11.584;2023-12-04T08:06:59;-3.00;99.90
38209;DHT22;24016;52.102;11.584;2023-12-04T08:09:24;-3.00;99.90
38209;DHT22;24016;52.102;11.584;2023-12-04T08:11:50;-2.90;99.90
38209;DHT22;24016;52.102;11.584;2023-12-04T08:14:15;-2.90;99.90
38209;DHT22;24016;52.102;11.584;2023-12-04T08:16:41;-2.90;99.90
38209;DHT22;24016;52.102;11.584;2023-12-04T08:19:07;-2.80;99.90
38209;DHT22;24016;52.102;11.584;2023-12-04T08:21:32;-2.70;99.90
38209;DHT22;24016;52.102;11.584;2023-12-04T08:23:58;-2.70;99.90
38209;DHT22;24016;52.102;11.584;2023-12-04T08:26:24;-2.70;99.90
38209;DHT22;24016;52.102;11.584;2023-12-04T08:28:51;-2.60;99.90
38209;DHT22;24016;52.102;11.584;2023-12-04T08:31:16;-2.60;99.90
38209;DHT22;24016;52.102;11.584;2023-12-04T08:33:42;-2.50;99.90
38209;DHT22;24016;52.102;11.584;2023-12-04T08:36:08;-2.50;99.90
38209;DHT22;24016;52.102;11.584;2023-12-04T08:38:34;-2.60;99.90
38209;DHT22;24016;52.102;11.584;2023-12-04T08:41:00;-2.60;99.90
38209;DHT22;24016;52.102;11.584;2023-12-04T08:43:26;-2.50;99.90
38209;DHT22;24016;52.102;11.584;2023-12-04T08:45:51;-2.40;99.90
38209;DHT22;24016;52.102;11.584;2023-12-04T08:48:17;-2.40;99.90
38209;DHT22;24016;52.102;11.584;2023-12-04T08:50:42;-2.40;99.90
38209;DHT22;24016;52.102;11.584;2023-12-04T08:53:08;-2.30;99.90
38209;DHT22;24016;52.102;11.584;2023-12-04T08:55:33;-2.30;99.90
38209;DHT22;24016;52.102;11.584;2023-12-04T08:57:59;-2.30;99.90
38209;DHT22;24016;52.102;11.584;2023-12-04T09:00:24;-2.40;99.90
38209;DHT22;24016;52.102;11.584;2023-12-04T09:02:50;-2.40;99.90
38209;DHT22;24016;52.102;11.584;2023-12-04T09:05:16;-2.30;99.90
38209;DHT22;24016;52.102;11.584;2023-12-04T09:07:44;-2.30;99.90
38209;DHT22;24016;52.102;11.584;2023-12-04T09:10:10;-2.30;99.90
38209;DHT22;24016;52.102;11.584;2023-12-04T09:12:39;-2.30;99.90
38209;DHT22;24016;52.102;11.584;2023-12-04T09:15:05;-2.40;99.90
38209;DHT22;24016;52.102;11.584;2023-12-04T09:17:33;-2.30;99.90
38209;DHT22;24016;52.102;11.584;2023-12-04T09:19:59;-2.20;99.90
38209;DHT22;24016;52.102;11.584;2023-12-04T09:22:26;-2.20;99.90
38209;DHT22;24016;52.102;11.584;2023-12-04T09:24:53;-2.20;99.90
38209;DHT22;24016;52.102;11.584;2023-12-04T09:27:18;-2.10;99.90
38209;DHT22;24016;52.102;11.584;2023-12-04T09:29:44;-2.10;99.90
38209;DHT22;24016;52.102;11.584;2023-12-04T09:32:10;-2.00;99.90
38209;DHT22;24016;52.102;11.584;2023-12-04T09:34:36;-2.10;99.90
38209;DHT22;24016;52.102;11.584;2023-12-04T09:37:02;-2.00;99.90
38209;DHT22;24016;52.102;11.584;2023-12-04T09:39:28;-2.00;99.90
38209;DHT22;24016;52.102;11.584;2023-12-04T09:41:55;-2.00;99.90
38209;DHT22;24016;52.102;11.584;2023-12-04T09:44:22;-1.90;99.90
38209;DHT22;24016;52.102;11.584;2023-12-04T09:46:50;-1.90;99.90
38209;DHT22;24016;52.102;11.584;2023-12-04T09:49:16;-1.90;99.90
38209;DHT22;24016;52.102;11.584;2023-12-04T09:51:43;-1.90;99.90
38209;DHT22;24016;52.102;11.584;2023-12-04T09:54:09;-1.90;99.90
38209;DHT22;24016;52.102;11.584;2023-12-04T09:56:35;-1.90;99.90
38209;DHT22;24016;52.102;11.584;2023-12-04T09:59:02;-1.80;99.90
38209;DHT22;24016;52.102;11.584;2023-12-04T10:01:31;-1.80;99.90
38209;DHT22;24016;52.102;11.584;2023-12-04T10:03:57;-1.80;99.90
38209;DHT22;24016;52.102;11.584;2023-12-04T10:06:28;-1.80;99.90
38209;DHT22;24016;52.102;11.584;2023-12-04T10:08:55;-1.80;99.90
38209;DHT22;24016;52.102;11.584;2023-12-04T10:11:22;-1.80;99.90
38209;DHT22;24016;52.102;11.584;2023-12-04T10:13:48;-1.70;99.90
38209;DHT22;24016;52.102;11.584;2023-12-04T10:16:13;-1.70;99.90
38209;DHT22;24016;52.102;11.584;2023-12-04T10:18:39;-1.60;99.90
38209;DHT22;24016;52.102;11.584;2023-12-04T10:21:05;-1.60;99.90
38209;DHT22;24016;52.102;11.584;2023-12-04T10:23:40;-1.50;99.90
38209;DHT22;24016;52.102;11.584;2023-12-04T10:26:07;-1.40;99.90
38209;DHT22;24016;52.102;11.584;2023-12-04T10:28:33;-1.40;99.90
38209;DHT22;24016;52.102;11.584;2023-12-04T10:30:58;-1.40;99.90
38209;DHT22;24016;52.102;11.584;2023-12-04T10:33:30;-1.30;99.90
38209;DHT22;24016;52.102;11.584;2023-12-04T10:35:56;-1.20;99.90
38209;DHT22;24016;52.102;11.584;2023-12-04T10:38:23;-1.30;99.90
38209;DHT22;24016;52.102;11.584;2023-12-04T10:40:48;-1.20;99.90
38209;DHT22;24016;52.102;11.584;2023-12-04T10:43:22;-1.20;99.90
38209;DHT22;24016;52.102;11.584;2023-12-04T10:45:49;-1.30;99.90
38209;DHT22;24016;52.102;11.584;2023-12-04T10:48:15;-1.30;99.90
38209;DHT22;24016;52.102;11.584;2023-12-04T10:50:44;-1.30;99.90
38209;DHT22;24016;52.102;11.584;2023-12-04T10:53:11;-1.20;99.90
38209;DHT22;24016;52.102;11.584;2023-12-04T10:55:37;-1.20;99.90
38209;DHT22;24016;52.102;11.584;2023-12-04T10:58:11;-1.20;99.90
38209;DHT22;24016;52.102;11.584;2023-12-04T11:00:40;-1.20;99.90
38209;DHT22;24016;52.102;11.584;2023-12-04T11:03:12;-1.20;99.90
38209;DHT22;24016;52.102;11.584;2023-12-04T11:05:40;-1.20;99.90
38209;DHT22;24016;52.102;11.584;2023-12-04T11:08:07;-1.10;99.90
38209;DHT22;24016;52.102;11.584;2023-12-04T11:10:37;-1.10;99.90
38209;DHT22;24016;52.102;11.584;2023-12-04T11:14:08;-1.10;99.90
38209;DHT22;24016;52.102;11.584;2023-12-04T11:16:22;-1.00;99.90
38209;DHT22;24016;52.102;11.584;2023-12-04T11:19:00;-1.10;99.90
38209;DHT22;24016;52.102;11.584;2023-12-04T11:21:28;-1.00;99.90
38209;DHT22;24016;52.102;11.584;2023-12-04T11:23:54;-1.00;99.90
38209;DHT22;24016;52.102;11.584;2023-12-04T11:26:22;-1.00;99.90
38209;DHT22;24016;52.102;11.584;2023-12-04T11:28:47;-1.10;99.90
38209;DHT22;24016;52.102;11.584;2023-12-04T11:31:13;-1.00;99.90
38209;DHT22;24016;52.102;11.584;2023-12-04T11:33:40;-1.00;99.90
38209;DHT22;24016;52.102;11.584;2023-12-04T11:36:11;-1.00;99.90
38209;DHT22;24016;52.102;11.584;2023-12-04T11:38:37;-0.90;99.90
38209;DHT22;24016;52.102;11.584;2023-12-04T11:41:22;-0.90;99.90
38209;DHT22;24016;52.102;11.584;2023-12-04T11:43:47;-1.00;99.90
38209;DHT22;24016;52.102;11.584;2023-12-04T11:46:14;-1.00;99.90
38209;DHT22;24016;52.102;11.584;2023-12-04T11:48:47;-0.90;99.90
38209;DHT22;24016;52.102;11.584;2023-12-04T11:52:00;-0.90;99.90
38209;DHT22;24016;52.102;11.584;2023-12-04T11:54:00;-0.90;99.90
38209;DHT22;24016;52.102;11.584;2023-12-04T11:56:26;-1.00;99.90
38209;DHT22;24016;52.102;11.584;2023-12-04T11:58:52;-0.90;99.90
38209;DHT22;24016;52.102;11.584;2023-12-04T12:01:17;-0.90;99.90
38209;DHT22;24016;52.102;11.584;2023-12-04T12:03:44;-0.90;99.90
38209;DHT22;24016;52.102;11.584;2023-12-04T12:06:09;-1.00;99.90
38209;DHT22;24016;52.102;11.584;2023-12-04T12:08:35;-1.10;99.90
38209;DHT22;24016;52.102;11.584;2023-12-04T12:11:01;-1.10;99.90
38209;DHT22;24016;52.102;11.584;2023-12-04T12:13:26;-1.20;99.90
38209;DHT22;24016;52.102;11.584;2023-12-04T12:15:52;-1.20;99.90
38209;DHT22;24016;52.102;11.584;2023-12-04T12:18:18;-1.20;99.90
38209;DHT22;24016;52.102;11.584;2023-12-04T12:20:44;-1.20;99.90
38209;DHT22;24016;52.102;11.584;2023-12-04T12:23:09;-1.30;99.90
38209;DHT22;24016;52.102;11.584;2023-12-04T12:25:35;-1.20;99.90
38209;DHT22;24016;52.102;11.584;2023-12-04T12:28:05;-1.30;99.90
38209;DHT22;24016;52.102;11.584;2023-12-04T12:30:30;-1.30;99.90
38209;DHT22;24016;52.102;11.584;2023-12-04T12:32:58;-1.30;99.90
38209;DHT22;24016;52.102;11.584;2023-12-04T12:35:23;-1.30;99.90
38209;DHT22;24016;52.102;11.584;2023-12-04T12:37:50;-1.30;99.90
38209;DHT22;24016;52.102;11.584;2023-12-04T12:40:20;-1.20;99.90
38209;DHT22;24016;52.102;11.584;2023-12-04T12:42:46;-1.30;99.90
38209;DHT22;24016;52.102;11.584;2023-12-04T12:45:12;-1.10;99.90
38209;DHT22;24016;52.102;11.584;2023-12-04T12:47:40;-1.30;99.90
38209;DHT22;24016;52.102;11.584;2023-12-04T12:50:08;-1.20;99.90
38209;DHT22;24016;52.102;11.584;2023-12-04T12:52:36;-1.20;99.90
38209;DHT22;24016;52.102;11.584;2023-12-04T12:55:02;-1.20;99.90
38209;DHT22;24016;52.102;11.584;2023-12-04T12:57:28;-1.10;99.90
38209;DHT22;24016;52.102;11.584;2023-12-04T12:59:53;-1.20;99.90
38209;DHT22;24016;52.102;11.584;2023-12-04T13:02:20;-1.20;99.90
38209;DHT22;24016;52.102;11.584;2023-12-04T13:04:46;-1.20;99.90
38209;DHT22;24016;52.102;11.584;2023-12-04T13:07:11;-1.20;99.90
38209;DHT22;24016;52.102;11.584;2023-12-04T13:09:37;-1.20;99.90
38209;DHT22;24016;52.102;11.584;2023-12-04T13:12:07;-1.20;99.90
38209;DHT22;24016;52.102;11.584;2023-12-04T13:14:34;-1.20;99.90
38209;DHT22;24016;52.102;11.584;2023-12-04T13:17:02;-1.20;99.90
38209;DHT22;24016;52.102;11.584;2023-12-04T13:19:28;-1.10;99.90
38209;DHT22;24016;52.102;11.584;2023-12-04T13:21:57;-1.10;99.90
38209;DHT22;24016;52.102;11.584;2023-12-04T13:24:22;-1.10;99.90
38209;DHT22;24016;52.102;11.584;2023-12-04T13:26:48;-1.10;99.90
38209;DHT22;24016;52.102;11.584;2023-12-04T13:29:13;-1.10;99.90
38209;DHT22;24016;52.102;11.584;2023-12-04T13:31:41;-1.10;99.90
38209;DHT22;24016;52.102;11.584;2023-12-04T13:34:07;-1.10;99.90
38209;DHT22;24016;52.102;11.584;2023-12-04T13:36:34;-1.10;99.90
38209;DHT22;24016;52.102;11.584;2023-12-04T13:38:59;-1.10;99.90
38209;DHT22;24016;52.102;11.584;2023-12-04T13:41:25;-1.10;99.90
38209;DHT22;24016;52.102;11.584;2023-12-04T13:44:09;-1.10;99.90
38209;DHT22;24016;52.102;11.584;2023-12-04T13:46:37;-1.10;99.90
38209;DHT22;24016;52.102;11.584;2023-12-04T13:49:03;-1.10;99.90
38209;DHT22;24016;52.102;11.584;2023-12-04T13:51:28;-1.10;99.90
38209;DHT22;24016;52.102;11.584;2023-12-04T13:53:54;-1.10;99.90
38209;DHT22;24016;52.102;11.584;2023-12-04T13:56:26;-1.10;99.90
38209;DHT22;24016;52.102;11.584;2023-12-04T13:58:52;-1.10;99.90
38209;DHT22;24016;52.102;11.584;2023-12-04T14:01:25;-1.10;99.90
38209;DHT22;24016;52.102;11.584;2023-12-04T14:03:54;-1.10;99.90
38209;DHT22;24016;52.102;11.584;2023-12-04T14:06:21;-1.20;99.90
38209;DHT22;24016;52.102;11.584;2023-12-04T14:08:47;-1.20;99.90
38209;DHT22;24016;52.102;11.584;2023-12-04T14:11:13;-1.20;99.90
38209;DHT22;24016;52.102;11.584;2023-12-04T14:13:40;-1.20;99.90
38209;DHT22;24016;52.102;11.584;2023-12-04T14:16:05;-1.20;99.90
38209;DHT22;24016;52.102;11.584;2023-12-04T14:18:31;-1.20;99.90
38209;DHT22;24016;52.102;11.584;2023-12-04T14:20:57;-1.10;99.90
38209;DHT22;24016;52.102;11.584;2023-12-04T14:23:23;-1.20;99.90
38209;DHT22;24016;52.102;11.584;2023-12-04T14:25:49;-1.20;99.90
38209;DHT22;24016;52.102;11.584;2023-12-04T14:28:14;-1.20;99.90
38209;DHT22;24016;52.102;11.584;2023-12-04T14:30:40;-1.20;99.90
38209;DHT22;24016;52.102;11.584;2023-12-04T14:33:08;-1.20;99.90
38209;DHT22;24016;52.102;11.584;2023-12-04T14:35:35;-1.20;99.90
38209;DHT22;24016;52.102;11.584;2023-12-04T14:38:03;-1.30;99.90
38209;DHT22;24016;52.102;11.584;2023-12-04T14:40:30;-1.20;99.90
38209;DHT22;24016;52.102;11.584;2023-12-04T14:42:56;-1.20;99.90
38209;DHT22;24016;52.102;11.584;2023-12-04T14:45:21;-1.30;99.90
38209;DHT22;24016;52.102;11.584;2023-12-04T14:47:47;-1.20;99.90
38209;DHT22;24016;52.102;11.584;2023-12-04T14:50:13;-1.30;99.90
38209;DHT22;24016;52.102;11.584;2023-12-04T14:52:39;-1.30;99.90
38209;DHT22;24016;52.102;11.584;2023-12-04T14:55:12;-1.30;99.90
38209;DHT22;24016;52.102;11.584;2023-12-04T14:57:53;-1.30;99.90
38209;DHT22;24016;52.102;11.584;2023-12-04T15:00:21;-1.30;99.90
38209;DHT22;24016;52.102;11.584;2023-12-04T15:03:19;-1.40;99.90
38209;DHT22;24016;52.102;11.584;2023-12-04T15:05:49;-1.40;99.90
38209;DHT22;24016;52.102;11.584;2023-12-04T15:08:33;-1.40;99.90
38209;DHT22;24016;52.102;11.584;2023-12-04T15:11:10;-1.40;99.90
38209;DHT22;24016;52.102;11.584;2023-12-04T15:13:55;-1.40;99.90